Time;durP1;ratioP1;P1;durP2;ratioP2;P2;SDS_P1;SDS_P2;PMS_P1;PMS_P2;Temp;Humidity;BMP_temperature;BMP_pressure;BME280_temperature;BME280_humidity;BME280_pressure;Samples;Min_cycle;Max_cycle;Signal;HPM_P1;HPM_P2
2022/10/28 00:01:33;;;;;;;;;;;;;;;5.55;100.00;98687.65;107622;1270;69223;-69
2022/10/28 00:04:03;;;;;;;;;;;;;;;5.54;100.00;98685.45;107657;1271;59776;-67
2022/10/28 00:06:33;;;;;;;;;;;;;;;5.53;100.00;98686.70;107676;1267;59715;-67
2022/10/28 00:09:03;;;;;;;;;;;;;;;5.51;100.00;98687.11;107671;1267;72016;-67
2022/10/28 00:11:39;;;;;;;;;;;;;;;5.49;100.00;98686.46;107662;1270;69904;-68
2022/10/28 00:14:09;;;;;;;;;;;;;;;5.48;100.00;98682.55;107598;1271;68336;-68
2022/10/28 00:16:38;;;;;;;;;;;;;;;5.44;100.00;98681.10;107667;1270;59704;-68
2022/10/28 00:19:09;;;;;;;;;;;;;;;5.41;100.00;98682.93;107653;1270;59664;-68
2022/10/28 00:21:41;;;;;;;;;;;;;;;5.39;100.00;98684.56;107678;1270;72308;-68
2022/10/28 00:24:11;;;;;;;;;;;;;;;5.36;100.00;98683.08;107623;1271;68513;-68
2022/10/28 00:26:42;;;;;;;;;;;;;;;5.34;100.00;98681.41;107643;1266;68462;-68
2022/10/28 00:29:13;;;;;;;;;;;;;;;5.34;100.00;98676.94;107655;1270;59715;-68
2022/10/28 00:31:43;;;;;;;;;;;;;;;5.39;100.00;98679.70;107646;1270;59792;-68
2022/10/28 00:34:14;;;;;;;;;;;;;;;5.43;100.00;98677.19;107650;1270;72154;-68
2022/10/28 00:36:44;;;;;;;;;;;;;;;5.44;100.00;98678.15;107640;1270;69753;-69
2022/10/28 00:39:18;;;;;;;;;;;;;;;5.45;100.00;98678.13;107635;1270;69440;-69
2022/10/28 00:41:50;;;;;;;;;;;;;;;5.47;100.00;98680.15;107633;1271;59713;-69
2022/10/28 00:44:47;;;;;;;;;;;;;;;5.48;100.00;98676.48;107636;1265;59723;-67
2022/10/28 00:47:32;;;;;;;;;;;;;;;5.42;100.00;98680.11;107655;1269;71259;-67
2022/10/28 00:50:10;;;;;;;;;;;;;;;5.37;100.00;98672.67;107629;1271;68392;-67
2022/10/28 00:52:41;;;;;;;;;;;;;;;5.35;100.00;98675.70;107649;1267;69773;-67
2022/10/28 00:55:12;;;;;;;;;;;;;;;5.33;100.00;98672.29;107684;1271;59789;-67
2022/10/28 00:57:42;;;;;;;;;;;;;;;5.30;100.00;98671.67;107655;1269;59709;-67
2022/10/28 01:00:12;;;;;;;;;;;;;;;5.28;100.00;98671.95;107644;1265;71444;-67
2022/10/28 01:02:46;;;;;;;;;;;;;;;5.21;100.00;98670.59;107668;1270;68381;-67
2022/10/28 01:05:22;;;;;;;;;;;;;;;5.18;100.00;98665.52;107657;1269;69293;-67
2022/10/28 01:07:56;;;;;;;;;;;;;;;5.16;100.00;98669.38;107639;1268;59783;-67
2022/10/28 01:10:32;;;;;;;;;;;;;;;5.15;100.00;98669.24;107637;1269;59712;-67
2022/10/28 01:13:11;;;;;;;;;;;;;;;5.10;100.00;98667.48;107676;1267;71397;-67
2022/10/28 01:15:58;;;;;;;;;;;;;;;5.04;100.00;98665.76;107651;1270;68487;-67
2022/10/28 01:18:33;;;;;;;;;;;;;;;5.00;100.00;98667.09;107649;1270;69312;-67
2022/10/28 01:21:11;;;;;;;;;;;;;;;4.95;100.00;98667.42;107685;1266;59749;-67
2022/10/28 01:23:44;;;;;;;;;;;;;;;4.88;100.00;98668.84;107650;1269;59738;-67
2022/10/28 01:26:23;;;;;;;;;;;;;;;4.83;100.00;98669.52;107640;1269;70564;-67
2022/10/28 01:29:11;;;;;;;;;;;;;;;4.80;100.00;98667.67;107654;1267;69227;-67
2022/10/28 01:31:47;;;;;;;;;;;;;;;4.78;100.00;98667.92;107660;1270;69257;-67
2022/10/28 01:34:32;;;;;;;;;;;;;;;4.76;100.00;98664.36;107649;1266;59786;-67
2022/10/28 01:37:25;;;;;;;;;;;;;;;4.73;100.00;98665.30;107657;1265;59717;-67
2022/10/28 01:40:07;;;;;;;;;;;;;;;4.66;100.00;98664.30;107664;1269;72451;-67
2022/10/28 01:42:50;;;;;;;;;;;;;;;4.60;100.00;98665.34;107668;1270;69201;-67
2022/10/28 01:45:26;;;;;;;;;;;;;;;4.54;100.00;98664.11;107661;1267;69886;-67
2022/10/28 01:48:00;;;;;;;;;;;;;;;4.50;100.00;98664.27;107623;1270;59698;-67
2022/10/28 01:50:33;;;;;;;;;;;;;;;4.47;100.00;98660.33;107652;1270;59778;-67
2022/10/28 01:53:10;;;;;;;;;;;;;;;4.47;100.00;98662.77;107651;1270;71334;-67
2022/10/28 01:55:41;;;;;;;;;;;;;;;4.45;100.00;98660.59;107668;1271;68268;-67
2022/10/28 01:58:16;;;;;;;;;;;;;;;4.41;100.00;98658.11;107677;1269;68480;-67
2022/10/28 02:00:48;;;;;;;;;;;;;;;4.37;100.00;98657.52;107669;1267;59741;-67
2022/10/28 02:03:19;;;;;;;;;;;;;;;4.36;100.00;98658.77;107556;1271;59768;-67
2022/10/28 02:05:54;;;;;;;;;;;;;;;4.35;100.00;98657.61;107652;1267;70774;-67
2022/10/28 02:08:23;;;;;;;;;;;;;;;4.35;100.00;98660.70;107663;1265;68443;-67
2022/10/28 02:10:58;;;;;;;;;;;;;;;4.35;100.00;98658.62;107680;1270;69159;-67
2022/10/28 02:13:38;;;;;;;;;;;;;;;4.36;100.00;98659.98;107643;1271;59691;-67
2022/10/28 02:16:21;;;;;;;;;;;;;;;4.37;100.00;98660.48;107645;1265;59715;-67
2022/10/28 02:19:17;;;;;;;;;;;;;;;4.37;100.00;98659.59;107649;1270;71655;-67
2022/10/28 02:21:59;;;;;;;;;;;;;;;4.37;99.95;98664.61;107570;1271;68373;-67
2022/10/28 02:24:39;;;;;;;;;;;;;;;4.35;100.00;98665.54;107630;1270;69776;-67
2022/10/28 02:27:20;;;;;;;;;;;;;;;4.31;100.00;98663.39;107620;1270;59790;-67
2022/10/28 02:29:53;;;;;;;;;;;;;;;4.29;100.00;98659.13;107605;1265;59678;-67
2022/10/28 02:32:24;;;;;;;;;;;;;;;4.28;100.00;98655.04;107621;1271;70471;-69
2022/10/28 02:34:57;;;;;;;;;;;;;;;4.25;99.73;98653.20;107647;1270;69346;-67
2022/10/28 02:37:29;;;;;;;;;;;;;;;4.27;98.01;98651.08;107627;1267;68501;-68
2022/10/28 02:40:01;;;;;;;;;;;;;;;4.29;100.00;98649.98;107619;1267;59738;-68
2022/10/28 02:42:32;;;;;;;;;;;;;;;4.27;100.00;98651.27;107393;1270;59744;-68
2022/10/28 02:45:08;;;;;;;;;;;;;;;4.24;100.00;98650.28;107675;1265;71394;-67
2022/10/28 02:47:40;;;;;;;;;;;;;;;4.22;100.00;98649.16;107623;1269;69159;-67
2022/10/28 02:50:11;;;;;;;;;;;;;;;4.20;100.00;98652.84;107629;1269;68481;-68
2022/10/28 02:52:44;;;;;;;;;;;;;;;4.20;98.41;98648.34;107619;1271;60089;-69
2022/10/28 02:55:14;;;;;;;;;;;;;;;4.21;99.91;98650.05;107473;1271;59773;-67
2022/10/28 02:57:48;;;;;;;;;;;;;;;4.20;100.00;98652.48;107613;1271;72584;-68
2022/10/28 03:00:19;;;;;;;;;;;;;;;4.18;100.00;98653.24;107666;1271;69318;-69
2022/10/28 03:02:48;;;;;;;;;;;;;;;4.16;100.00;98650.69;107622;1271;68501;-68
2022/10/28 03:05:17;;;;;;;;;;;;;;;4.14;100.00;98648.50;107670;1265;59739;-68
2022/10/28 03:07:46;;;;;;;;;;;;;;;4.12;100.00;98653.39;107663;1265;59716;-68
2022/10/28 03:10:16;;;;;;;;;;;;;;;4.11;99.99;98652.91;107663;1270;71491;-68
2022/10/28 03:12:46;;;;;;;;;;;;;;;4.08;100.00;98648.30;107630;1270;69174;-68
2022/10/28 03:15:15;;;;;;;;;;;;;;;4.02;100.00;98651.06;107633;1270;68368;-68
2022/10/28 03:17:44;;;;;;;;;;;;;;;3.98;98.86;98653.93;107628;1267;59776;-68
2022/10/28 03:20:14;;;;;;;;;;;;;;;3.95;97.07;98652.97;107637;1271;59719;-68
2022/10/28 03:22:43;;;;;;;;;;;;;;;3.91;95.68;98647.75;107637;1271;72123;-69
2022/10/28 03:25:13;;;;;;;;;;;;;;;3.87;95.57;98653.70;107583;1269;69164;-67
2022/10/28 03:27:42;;;;;;;;;;;;;;;3.85;95.52;98650.67;107599;1271;67442;-67
2022/10/28 03:30:13;;;;;;;;;;;;;;;3.82;95.58;98648.98;107619;1271;59692;-67
2022/10/28 03:32:42;;;;;;;;;;;;;;;3.81;97.67;98652.99;107646;1267;59758;-67
2022/10/28 03:35:12;;;;;;;;;;;;;;;3.80;99.15;98648.70;107630;1267;70579;-67
2022/10/28 03:37:42;;;;;;;;;;;;;;;3.81;96.97;98650.95;107657;1270;69969;-66
2022/10/28 03:40:12;;;;;;;;;;;;;;;3.81;96.62;98650.76;107657;1269;69288;-68
2022/10/28 03:42:43;;;;;;;;;;;;;;;3.84;99.76;98651.38;107661;1267;59697;-66
2022/10/28 03:45:12;;;;;;;;;;;;;;;3.86;100.00;98653.22;107619;1266;59777;-67
2022/10/28 03:47:42;;;;;;;;;;;;;;;3.90;100.00;98654.14;107665;1267;71432;-67
2022/10/28 03:50:13;;;;;;;;;;;;;;;3.92;100.00;98657.54;107639;1270;68266;-67
2022/10/28 03:52:43;;;;;;;;;;;;;;;3.95;100.00;98652.98;107425;1270;69311;-67
2022/10/28 03:55:13;;;;;;;;;;;;;;;3.97;100.00;98650.34;107634;1271;60176;-67
2022/10/28 03:57:43;;;;;;;;;;;;;;;3.98;100.00;98650.65;107664;1270;59705;-67
2022/10/28 04:00:12;;;;;;;;;;;;;;;3.97;100.00;98652.23;107691;1270;70680;-67
2022/10/28 04:02:40;;;;;;;;;;;;;;;3.93;100.00;98648.38;107681;1270;69228;-67
2022/10/28 04:05:09;;;;;;;;;;;;;;;3.86;100.00;98645.64;107666;1270;69309;-67
2022/10/28 04:07:38;;;;;;;;;;;;;;;3.80;100.00;98646.46;107626;1271;59708;-67
2022/10/28 04:10:07;;;;;;;;;;;;;;;3.76;100.00;98642.96;107681;1271;59658;-68
2022/10/28 04:12:36;;;;;;;;;;;;;;;3.71;100.00;98640.50;107672;1267;70918;-67
2022/10/28 04:15:05;;;;;;;;;;;;;;;3.68;100.00;98641.44;107627;1268;68702;-67
2022/10/28 04:17:34;;;;;;;;;;;;;;;3.66;100.00;98640.13;107645;1269;70015;-68
2022/10/28 04:20:03;;;;;;;;;;;;;;;3.62;100.00;98640.21;107664;1269;59736;-67
2022/10/28 04:22:33;;;;;;;;;;;;;;;3.60;100.00;98640.77;107665;1270;59713;-67
2022/10/28 04:25:01;;;;;;;;;;;;;;;3.58;100.00;98638.08;107657;1272;71908;-67
2022/10/28 04:27:30;;;;;;;;;;;;;;;3.57;99.65;98636.56;107624;1270;69083;-68
2022/10/28 04:29:59;;;;;;;;;;;;;;;3.54;97.92;98634.55;107645;1270;68830;-70
2022/10/28 04:32:27;;;;;;;;;;;;;;;3.50;97.86;98636.21;107648;1270;59753;-70
2022/10/28 04:34:56;;;;;;;;;;;;;;;3.43;97.99;98638.44;107642;1265;59784;-71
2022/10/28 04:37:25;;;;;;;;;;;;;;;3.36;98.58;98638.11;107680;1265;71585;-70
2022/10/28 04:39:54;;;;;;;;;;;;;;;3.29;100.00;98638.09;107670;1269;69244;-70
2022/10/28 04:42:23;;;;;;;;;;;;;;;3.23;100.00;98639.77;107626;1265;68479;-70
2022/10/28 04:44:51;;;;;;;;;;;;;;;3.20;100.00;98639.86;107633;1269;59757;-69
2022/10/28 04:47:20;;;;;;;;;;;;;;;3.18;100.00;98642.48;107648;1267;59646;-69
2022/10/28 04:49:49;;;;;;;;;;;;;;;3.17;100.00;98647.52;107499;1272;70781;-70
2022/10/28 04:52:18;;;;;;;;;;;;;;;3.16;100.00;98646.01;107624;1266;69821;-69
2022/10/28 04:54:47;;;;;;;;;;;;;;;3.14;100.00;98643.96;107691;1270;70201;-69
2022/10/28 04:57:17;;;;;;;;;;;;;;;3.14;100.00;98645.16;107648;1271;59715;-69
2022/10/28 04:59:45;;;;;;;;;;;;;;;3.14;100.00;98648.96;107638;1272;59770;-69
2022/10/28 05:02:14;;;;;;;;;;;;;;;3.15;100.00;98648.61;107637;1270;71812;-69
2022/10/28 05:04:42;;;;;;;;;;;;;;;3.16;100.00;98648.05;107653;1270;68491;-69
2022/10/28 05:07:11;;;;;;;;;;;;;;;3.17;100.00;98649.04;107611;1266;69773;-69
2022/10/28 05:09:39;;;;;;;;;;;;;;;3.19;100.00;98648.33;107625;1271;59699;-69
2022/10/28 05:12:08;;;;;;;;;;;;;;;3.21;100.00;98645.85;107613;1270;59664;-69
2022/10/28 05:14:36;;;;;;;;;;;;;;;3.23;100.00;98645.63;107633;1270;72087;-69
2022/10/28 05:17:04;;;;;;;;;;;;;;;3.26;100.00;98645.40;107625;1269;69822;-70
2022/10/28 05:19:33;;;;;;;;;;;;;;;3.38;100.00;98647.86;107620;1271;69707;-70
2022/10/28 05:22:02;;;;;;;;;;;;;;;3.46;100.00;98648.36;107622;1270;59738;-72
2022/10/28 05:24:31;;;;;;;;;;;;;;;3.46;100.00;98650.59;107563;1270;59712;-69
2022/10/28 05:26:59;;;;;;;;;;;;;;;3.46;100.00;98651.98;107641;1270;71391;-69
2022/10/28 05:29:28;;;;;;;;;;;;;;;3.48;100.00;98650.40;107593;1267;69835;-69
2022/10/28 05:32:00;;;;;;;;;;;;;;;3.50;100.00;98652.56;107606;1270;70028;-69
2022/10/28 05:34:29;;;;;;;;;;;;;;;3.52;100.00;98658.22;107669;1271;59721;-69
2022/10/28 05:36:57;;;;;;;;;;;;;;;3.57;100.00;98660.51;107601;1268;59690;-69
2022/10/28 05:39:25;;;;;;;;;;;;;;;3.61;100.00;98660.22;107611;1270;71440;-69
2022/10/28 05:41:54;;;;;;;;;;;;;;;3.65;100.00;98660.48;107645;1271;69466;-69
2022/10/28 05:44:22;;;;;;;;;;;;;;;3.67;100.00;98658.38;107601;1271;68817;-69
2022/10/28 05:46:52;;;;;;;;;;;;;;;3.69;100.00;98661.59;107636;1271;59769;-69
2022/10/28 05:49:22;;;;;;;;;;;;;;;3.72;100.00;98663.95;107680;1270;59659;-69
2022/10/28 05:51:50;;;;;;;;;;;;;;;3.68;100.00;98667.29;107632;1265;70638;-69
2022/10/28 05:54:19;;;;;;;;;;;;;;;3.71;100.00;98669.65;107615;1273;69565;-69
2022/10/28 05:56:48;;;;;;;;;;;;;;;3.76;100.00;98670.55;107652;1269;69417;-69
2022/10/28 05:59:16;;;;;;;;;;;;;;;3.85;100.00;98673.61;107595;1270;59763;-70
2022/10/28 06:01:45;;;;;;;;;;;;;;;3.97;100.00;98673.80;107568;1265;59708;-70
2022/10/28 06:04:13;;;;;;;;;;;;;;;4.11;100.00;98678.44;107570;1270;71641;-69
2022/10/28 06:06:42;;;;;;;;;;;;;;;4.23;100.00;98681.40;107589;1269;69449;-69
2022/10/28 06:09:11;;;;;;;;;;;;;;;4.39;100.00;98682.50;107531;1271;68848;-69
2022/10/28 06:11:39;;;;;;;;;;;;;;;4.56;100.00;98685.31;107618;1270;59759;-69
2022/10/28 06:14:07;;;;;;;;;;;;;;;4.73;99.53;98685.35;107632;1271;59807;-69
2022/10/28 06:16:37;;;;;;;;;;;;;;;4.96;98.84;98684.66;107635;1265;71999;-69
2022/10/28 06:19:06;;;;;;;;;;;;;;;5.26;98.23;98688.23;107650;1267;68399;-69
2022/10/28 06:21:34;;;;;;;;;;;;;;;5.63;97.16;98693.81;107612;1270;68201;-69
2022/10/28 06:24:03;;;;;;;;;;;;;;;5.94;94.36;98690.73;107670;1270;59783;-70
2022/10/28 06:26:31;;;;;;;;;;;;;;;6.23;92.71;98693.71;107668;1270;59783;-69
2022/10/28 06:28:59;;;;;;;;;;;;;;;6.59;92.45;98691.24;107643;1271;71503;-70
2022/10/28 06:31:28;;;;;;;;;;;;;;;6.91;90.59;98694.20;107658;1269;68744;-70
2022/10/28 06:33:57;;;;;;;;;;;;;;;7.32;88.13;98694.39;107628;1271;70017;-69
2022/10/28 06:36:25;;;;;;;;;;;;;;;7.63;86.04;98695.23;107602;1271;59777;-70
2022/10/28 06:38:53;;;;;;;;;;;;;;;8.02;84.40;98700.72;107611;1271;59707;-70
2022/10/28 06:41:22;;;;;;;;;;;;;;;8.26;82.94;98701.44;107629;1270;71474;-70
2022/10/28 06:43:50;;;;;;;;;;;;;;;8.34;82.30;98701.44;107584;1273;68376;-70
2022/10/28 06:46:19;;;;;;;;;;;;;;;8.60;81.32;98697.36;107662;1266;68461;-71
2022/10/28 06:48:47;;;;;;;;;;;;;;;9.09;80.13;98703.52;107671;1270;59774;-69
2022/10/28 06:51:16;;;;;;;;;;;;;;;9.75;80.31;98709.09;107615;1270;59709;-69
2022/10/28 06:53:47;;;;;;;;;;;;;;;10.33;79.69;98703.39;107612;1271;71379;-70
2022/10/28 06:56:17;;;;;;;;;;;;;;;10.78;75.75;98703.30;107630;1270;69866;-70
2022/10/28 06:58:49;;;;;;;;;;;;;;;11.24;73.89;98705.69;107679;1266;68498;-70
2022/10/28 07:01:33;;;;;;;;;;;;;;;11.44;69.94;98706.56;107597;1271;59728;-70
2022/10/28 07:04:05;;;;;;;;;;;;;;;11.55;70.03;98706.08;107572;1270;59766;-69
2022/10/28 07:06:33;;;;;;;;;;;;;;;11.79;68.58;98711.36;107569;1268;71075;-70
2022/10/28 07:09:02;;;;;;;;;;;;;;;11.77;68.56;98706.94;107583;1270;69478;-69
2022/10/28 07:11:30;;;;;;;;;;;;;;;11.80;68.64;98709.25;107594;1271;69831;-70
2022/10/28 07:13:59;;;;;;;;;;;;;;;12.27;68.16;98708.44;107680;1273;59776;-70
2022/10/28 07:16:28;;;;;;;;;;;;;;;12.64;67.12;98705.36;107701;1266;59706;-70
2022/10/28 07:18:56;;;;;;;;;;;;;;;12.97;65.95;98706.13;107633;1270;70985;-70
2022/10/28 07:21:27;;;;;;;;;;;;;;;13.30;63.89;98707.40;107654;1270;69542;-70
2022/10/28 07:23:55;;;;;;;;;;;;;;;13.37;64.73;98711.11;107652;1271;68558;-70
2022/10/28 07:26:24;;;;;;;;;;;;;;;13.55;63.92;98708.92;107204;1270;529251;-70
2022/10/28 07:28:53;;;;;;;;;;;;;;;13.87;63.01;98712.99;107672;1270;59718;-70
2022/10/28 07:31:21;;;;;;;;;;;;;;;13.98;62.96;98713.88;107711;1271;71378;-70
2022/10/28 07:33:50;;;;;;;;;;;;;;;13.73;63.51;98711.98;107605;1269;69607;-70
2022/10/28 07:36:19;;;;;;;;;;;;;;;13.95;63.38;98706.89;107633;1269;69341;-70
2022/10/28 07:38:50;;;;;;;;;;;;;;;14.55;63.60;98707.94;107616;1271;59737;-70
2022/10/28 07:41:19;;;;;;;;;;;;;;;15.25;60.75;98706.95;107670;1271;59773;-70
2022/10/28 07:43:48;;;;;;;;;;;;;;;15.66;59.34;98706.05;107652;1270;71866;-70
2022/10/28 07:46:17;;;;;;;;;;;;;;;15.50;58.79;98707.03;107647;1266;69357;-70
2022/10/28 07:48:45;;;;;;;;;;;;;;;16.02;59.07;98705.71;107650;1270;69258;-71
2022/10/28 07:51:14;;;;;;;;;;;;;;;16.65;56.66;98701.61;107642;1271;59739;-71
2022/10/28 07:53:43;;;;;;;;;;;;;;;17.22;55.14;98701.06;107664;1270;59779;-71
2022/10/28 07:56:14;;;;;;;;;;;;;;;17.31;54.90;98702.33;107618;1271;71631;-71
2022/10/28 07:58:43;;;;;;;;;;;;;;;17.27;54.34;98701.90;107613;1270;68756;-71
2022/10/28 08:01:14;;;;;;;;;;;;;;;17.41;54.10;98700.73;107536;1270;69583;-71
2022/10/28 08:03:42;;;;;;;;;;;;;;;17.58;53.21;98699.05;107616;1271;59834;-71
2022/10/28 08:06:14;;;;;;;;;;;;;;;18.24;52.82;98697.67;107598;1266;59761;-71
2022/10/28 08:08:44;;;;;;;;;;;;;;;18.26;51.89;98693.09;107683;1271;71738;-70
2022/10/28 08:11:13;;;;;;;;;;;;;;;17.77;52.86;98696.27;107605;1270;69812;-71
2022/10/28 08:13:42;;;;;;;;;;;;;;;18.18;52.49;98692.52;107615;1270;69770;-71
2022/10/28 08:16:11;;;;;;;;;;;;;;;18.72;51.32;98690.23;107616;1266;59751;-70
2022/10/28 08:18:39;;;;;;;;;;;;;;;18.93;50.59;98687.16;107653;1270;59743;-70
2022/10/28 08:21:09;;;;;;;;;;;;;;;19.38;49.48;98683.05;107646;1270;72310;-71
2022/10/28 08:23:37;;;;;;;;;;;;;;;19.27;49.13;98681.42;107606;1270;69936;-71
2022/10/28 08:26:06;;;;;;;;;;;;;;;19.39;48.58;98680.53;107553;1270;69834;-70
2022/10/28 08:28:34;;;;;;;;;;;;;;;19.09;48.85;98678.94;107566;1273;59684;-71
2022/10/28 08:31:07;;;;;;;;;;;;;;;18.95;49.76;98682.08;107571;1271;59782;-71
2022/10/28 08:33:41;;;;;;;;;;;;;;;19.13;49.50;98684.77;107599;1270;71388;-71
2022/10/28 08:36:11;;;;;;;;;;;;;;;19.81;48.59;98684.73;107600;1271;69830;-71
2022/10/28 08:38:41;;;;;;;;;;;;;;;19.95;48.06;98686.14;107646;1270;69331;-71
2022/10/28 08:41:15;;;;;;;;;;;;;;;20.06;47.34;98684.55;107630;1271;59759;-71
2022/10/28 08:43:43;;;;;;;;;;;;;;;20.14;47.35;98682.59;107603;1270;59685;-71
2022/10/28 08:46:31;;;;;;;;;;;;;;;20.65;46.01;98683.87;107634;1270;72076;-71
2022/10/28 08:49:01;;;;;;;;;;;;;;;20.64;46.67;98682.17;107659;1268;69216;-72
2022/10/28 08:51:35;;;;;;;;;;;;;;;20.98;45.93;98680.37;107592;1270;69402;-70
2022/10/28 08:54:10;;;;;;;;;;;;;;;21.35;44.70;98682.73;107634;1269;59714;-70
2022/10/28 08:56:45;;;;;;;;;;;;;;;21.18;44.27;98681.82;107636;1269;59736;-71
2022/10/28 08:59:26;;;;;;;;;;;;;;;22.36;44.19;98679.12;107638;1269;71411;-71
2022/10/28 09:02:03;;;;;;;;;;;;;;;23.03;42.86;98667.07;107616;1270;69368;-71
2022/10/28 09:04:38;;;;;;;;;;;;;;;23.21;41.42;98670.48;107576;1270;69296;-72
2022/10/28 09:07:16;;;;;;;;;;;;;;;22.70;40.81;98667.24;107617;1270;59719;-72
2022/10/28 09:09:45;;;;;;;;;;;;;;;22.60;41.23;98671.11;107624;1271;59736;-73
2022/10/28 09:12:16;;;;;;;;;;;;;;;21.99;42.26;98670.70;107584;1270;72008;-69
2022/10/28 09:14:51;;;;;;;;;;;;;;;22.15;42.12;98670.42;107595;1270;69430;-70
2022/10/28 09:17:20;;;;;;;;;;;;;;;22.29;42.47;98669.48;107559;1270;68970;-71
2022/10/28 09:19:49;;;;;;;;;;;;;;;23.38;40.34;98666.77;107614;1266;60153;-71
2022/10/28 09:22:33;;;;;;;;;;;;;;;23.13;40.24;98663.35;107620;1270;59728;-71
2022/10/28 09:25:15;;;;;;;;;;;;;;;22.75;40.77;98656.06;107547;1270;72304;-71
2022/10/28 09:27:59;;;;;;;;;;;;;;;22.58;41.36;98662.06;107581;1269;69532;-72
2022/10/28 09:30:28;;;;;;;;;;;;;;;22.97;41.07;98656.46;107598;1271;69980;-73
2022/10/28 09:33:15;;;;;;;;;;;;;;;23.59;39.60;98655.11;107595;1270;59716;-70
2022/10/28 09:35:45;;;;;;;;;;;;;;;23.91;38.71;98651.98;107658;1270;59634;-71
2022/10/28 09:38:28;;;;;;;;;;;;;;;24.43;38.59;98648.11;107592;1270;72070;-72
2022/10/28 09:41:18;;;;;;;;;;;;;;;25.04;37.06;98649.14;107662;1270;68946;-71
2022/10/28 09:43:47;;;;;;;;;;;;;;;25.28;36.43;98649.45;107564;1270;68538;-71
2022/10/28 09:46:17;;;;;;;;;;;;;;;24.20;37.03;98644.00;107645;1270;59774;-71
2022/10/28 09:48:47;;;;;;;;;;;;;;;24.08;38.44;98640.84;107636;1270;59778;-71
2022/10/28 09:51:21;;;;;;;;;;;;;;;24.80;37.03;98636.30;107616;1270;71355;-72
2022/10/28 09:53:52;;;;;;;;;;;;;;;24.83;36.30;98637.27;107656;1270;69927;-71
2022/10/28 09:56:21;;;;;;;;;;;;;;;24.92;36.75;98638.23;107556;1270;68774;-71
2022/10/28 09:58:49;;;;;;;;;;;;;;;25.04;36.01;98639.59;107679;1270;59792;-71
2022/10/28 10:01:19;;;;;;;;;;;;;;;24.46;36.73;98635.11;107605;1270;59768;-72
2022/10/28 10:03:48;;;;;;;;;;;;;;;24.79;36.66;98630.93;107666;1270;70842;-71
2022/10/28 10:06:24;;;;;;;;;;;;;;;25.85;35.66;98632.70;107648;1269;69211;-71
2022/10/28 10:08:56;;;;;;;;;;;;;;;26.19;34.74;98632.67;107614;1266;70336;-71
2022/10/28 10:11:36;;;;;;;;;;;;;;;25.15;35.56;98632.19;107636;1266;59732;-71
2022/10/28 10:14:06;;;;;;;;;;;;;;;26.04;34.73;98626.70;107607;1270;59702;-72
2022/10/28 10:16:41;;;;;;;;;;;;;;;25.73;34.75;98625.23;107668;1267;71381;-71
2022/10/28 10:19:12;;;;;;;;;;;;;;;25.35;35.36;98627.27;107614;1270;69925;-72
2022/10/28 10:21:42;;;;;;;;;;;;;;;25.79;34.46;98627.46;107564;1270;70002;-72
2022/10/28 10:24:30;;;;;;;;;;;;;;;25.84;35.25;98626.75;107585;1270;59864;-71
2022/10/28 10:27:00;;;;;;;;;;;;;;;26.51;34.35;98618.29;107579;1269;59751;-71
2022/10/28 10:29:29;;;;;;;;;;;;;;;26.52;33.51;98619.55;107575;1271;71413;-73
2022/10/28 10:32:03;;;;;;;;;;;;;;;26.54;33.65;98616.48;107552;1270;69181;-72
2022/10/28 10:34:32;;;;;;;;;;;;;;;26.35;33.94;98617.33;107529;1270;69316;-71
2022/10/28 10:37:01;;;;;;;;;;;;;;;26.59;33.75;98613.23;107570;1270;59740;-71
2022/10/28 10:39:36;;;;;;;;;;;;;;;26.82;33.50;98610.14;107617;1270;59743;-71
2022/10/28 10:42:14;;;;;;;;;;;;;;;26.94;32.96;98609.16;107571;1270;71687;-72
2022/10/28 10:44:43;;;;;;;;;;;;;;;26.18;34.17;98605.42;107624;1266;68377;-72
2022/10/28 10:47:12;;;;;;;;;;;;;;;26.10;33.96;98607.11;107613;1270;69894;-72
2022/10/28 10:49:40;;;;;;;;;;;;;;;26.10;34.07;98605.15;107553;1271;59825;-71
2022/10/28 10:52:17;;;;;;;;;;;;;;;26.13;34.58;98601.73;107653;1269;59710;-71
2022/10/28 10:55:01;;;;;;;;;;;;;;;26.54;33.86;98600.10;107598;1270;72125;-72
2022/10/28 10:57:31;;;;;;;;;;;;;;;26.31;33.60;98598.91;107556;1270;69791;-71
2022/10/28 10:59:59;;;;;;;;;;;;;;;26.29;34.09;98593.65;107564;1270;68549;-70
2022/10/28 11:02:38;;;;;;;;;;;;;;;26.45;33.65;98592.07;107563;1262;59695;-70
2022/10/28 11:05:10;;;;;;;;;;;;;;;26.38;33.68;98593.19;107574;1270;59763;-72
2022/10/28 11:07:44;;;;;;;;;;;;;;;26.47;32.25;98590.96;107567;1270;71425;-73
2022/10/28 11:10:23;;;;;;;;;;;;;;;27.20;31.29;98588.48;107594;1270;69885;-72
2022/10/28 11:12:53;;;;;;;;;;;;;;;27.23;31.19;98588.83;107599;1266;69740;-72
2022/10/28 11:15:26;;;;;;;;;;;;;;;26.95;31.47;98582.23;107603;1270;59793;-72
2022/10/28 11:17:56;;;;;;;;;;;;;;;26.41;32.16;98581.73;107671;1268;59773;-71
2022/10/28 11:20:29;;;;;;;;;;;;;;;26.79;31.35;98580.31;107610;1270;70910;-72
2022/10/28 11:23:06;;;;;;;;;;;;;;;26.02;32.33;98580.45;107557;1270;68231;-71
2022/10/28 11:25:36;;;;;;;;;;;;;;;26.22;32.23;98576.52;107593;1270;69022;-71
2022/10/28 11:28:24;;;;;;;;;;;;;;;26.42;32.43;98575.22;107539;1267;59786;-71
2022/10/28 11:31:00;;;;;;;;;;;;;;;26.90;31.93;98574.10;107582;1270;59772;-71
2022/10/28 11:33:38;;;;;;;;;;;;;;;26.69;31.72;98574.36;107584;1266;72149;-72
2022/10/28 11:36:09;;;;;;;;;;;;;;;25.91;33.19;98572.23;107599;1266;70197;-72
2022/10/28 11:38:38;;;;;;;;;;;;;;;27.00;31.98;98568.00;107582;1270;69312;-72
2022/10/28 11:41:12;;;;;;;;;;;;;;;27.26;30.97;98564.71;107553;1270;59727;-72
2022/10/28 11:43:47;;;;;;;;;;;;;;;27.22;30.76;98561.39;107616;1270;59733;-72
2022/10/28 11:46:34;;;;;;;;;;;;;;;27.37;30.58;98557.23;107571;1266;72168;-71
2022/10/28 11:49:21;;;;;;;;;;;;;;;28.03;29.87;98554.82;107618;1269;69886;-73
2022/10/28 11:51:56;;;;;;;;;;;;;;;28.54;29.23;98554.20;107539;1270;69997;-71
2022/10/28 11:54:30;;;;;;;;;;;;;;;27.80;29.66;98552.50;107569;1270;59741;-70
2022/10/28 11:57:02;;;;;;;;;;;;;;;27.88;29.78;98552.47;107633;1265;60007;-71
2022/10/28 11:59:30;;;;;;;;;;;;;;;28.62;29.12;98547.73;107609;1270;71374;-72
2022/10/28 12:02:19;;;;;;;;;;;;;;;28.21;28.66;98544.24;107600;1270;68240;-72
2022/10/28 12:05:05;;;;;;;;;;;;;;;28.13;29.28;98541.92;107608;1270;70024;-72
2022/10/28 12:07:53;;;;;;;;;;;;;;;28.11;28.91;98539.80;107605;1270;59755;-72
2022/10/28 12:10:24;;;;;;;;;;;;;;;28.10;28.71;98541.70;107613;1270;59734;-72
2022/10/28 12:13:10;;;;;;;;;;;;;;;27.32;30.31;98541.36;107668;1270;72466;-72
2022/10/28 12:15:38;;;;;;;;;;;;;;;27.62;29.73;98537.84;107610;1266;69230;-72
2022/10/28 12:18:17;;;;;;;;;;;;;;;26.96;30.83;98540.39;107571;1269;69235;-72
2022/10/28 12:20:49;;;;;;;;;;;;;;;27.02;30.14;98534.25;107565;1268;59729;-71
2022/10/28 12:23:19;;;;;;;;;;;;;;;26.81;30.81;98536.37;107556;1270;59783;-71
2022/10/28 12:25:51;;;;;;;;;;;;;;;26.73;31.01;98534.45;107654;1266;72068;-71
2022/10/28 12:28:26;;;;;;;;;;;;;;;27.23;30.74;98531.86;107636;1269;69144;-71
2022/10/28 12:30:55;;;;;;;;;;;;;;;27.57;30.13;98528.38;107636;1270;69508;-71
2022/10/28 12:33:24;;;;;;;;;;;;;;;27.86;29.28;98523.33;107638;1270;59711;-73
2022/10/28 12:36:12;;;;;;;;;;;;;;;27.50;30.00;98523.67;107616;1270;59747;-72
2022/10/28 12:38:56;;;;;;;;;;;;;;;27.11;30.39;98523.61;107566;1270;71316;-71
2022/10/28 12:41:26;;;;;;;;;;;;;;;27.07;30.95;98522.76;107642;1270;69848;-70
2022/10/28 12:43:55;;;;;;;;;;;;;;;27.67;30.01;98519.85;107611;1270;69773;-71
2022/10/28 12:46:23;;;;;;;;;;;;;;;27.46;29.83;98518.54;107574;1266;59735;-72
2022/10/28 12:48:57;;;;;;;;;;;;;;;27.27;30.50;98523.27;107568;1267;59721;-70
2022/10/28 12:51:28;;;;;;;;;;;;;;;27.95;29.31;98516.45;107630;1267;70722;-70
2022/10/28 12:54:06;;;;;;;;;;;;;;;27.71;29.47;98515.31;107621;1268;69899;-72
2022/10/28 12:56:40;;;;;;;;;;;;;;;27.79;30.09;98514.72;107560;1267;69385;-70
2022/10/28 12:59:13;;;;;;;;;;;;;;;27.79;29.58;98509.87;107565;1270;59751;-71
2022/10/28 13:01:44;;;;;;;;;;;;;;;27.03;30.12;98506.67;107648;1266;59702;-71
2022/10/28 13:04:13;;;;;;;;;;;;;;;27.16;30.46;98502.95;107644;1270;71442;-73